createdAt,value
2023-08-29T00:01:11.456Z,1.40
2023-08-29T00:03:38.058Z,1.30
2023-08-29T00:06:05.785Z,1.60
2023-08-29T00:08:35.690Z,1.50
2023-08-29T00:11:06.041Z,1.23
2023-08-29T00:13:32.618Z,1.15
2023-08-29T00:15:59.534Z,1.02
2023-08-29T00:18:25.981Z,1.42
2023-08-29T00:20:53.388Z,1.20
2023-08-29T00:23:19.847Z,1.20
2023-08-29T00:25:47.467Z,1.48
2023-08-29T00:28:14.629Z,1.13
2023-08-29T00:30:44.725Z,1.33
2023-08-29T00:33:12.214Z,1.02
2023-08-29T00:35:38.632Z,0.80
2023-08-29T00:38:05.424Z,1.10
2023-08-29T00:40:32.964Z,1.10
2023-08-29T00:43:00.745Z,1.15
2023-08-29T00:45:30.744Z,1.05
2023-08-29T00:47:57.605Z,0.93
2023-08-29T00:50:26.908Z,0.70
2023-08-29T00:52:59.417Z,1.10
2023-08-29T00:55:27.888Z,1.02
2023-08-29T00:57:57.777Z,0.80
2023-08-29T01:00:26.122Z,1.10
2023-08-29T01:02:52.638Z,1.13
2023-08-29T01:05:19.092Z,1.17
2023-08-29T01:07:45.629Z,1.10
2023-08-29T01:10:12.307Z,1.10
2023-08-29T01:12:48.968Z,1.02
2023-08-29T01:15:30.611Z,1.30
2023-08-29T01:18:02.185Z,1.10
2023-08-29T01:20:31.073Z,1.02
2023-08-29T01:23:24.715Z,0.85
2023-08-29T01:26:14.174Z,1.00
2023-08-29T01:28:44.441Z,1.30
2023-08-29T01:31:12.321Z,1.25
2023-08-29T01:33:40.344Z,0.90
2023-08-29T01:36:07.376Z,1.20
2023-08-29T01:38:33.854Z,1.38
2023-08-29T01:41:00.342Z,1.15
2023-08-29T01:43:26.848Z,0.82
2023-08-29T01:45:53.387Z,1.00
2023-08-29T01:48:19.912Z,0.82
2023-08-29T01:50:47.105Z,1.10
2023-08-29T01:53:13.845Z,0.77
2023-08-29T01:55:41.408Z,0.95
2023-08-29T01:58:12.340Z,0.70
2023-08-29T02:00:39.483Z,0.80
2023-08-29T02:03:06.249Z,0.98
2023-08-29T02:05:33.522Z,0.88
2023-08-29T02:08:00.258Z,1.00
2023-08-29T02:10:26.832Z,0.77
2023-08-29T02:12:53.293Z,0.77
2023-08-29T02:15:19.690Z,0.70
2023-08-29T02:17:46.331Z,0.95
2023-08-29T02:20:12.874Z,0.80
2023-08-29T02:22:39.297Z,0.88
2023-08-29T02:25:06.076Z,0.93
2023-08-29T02:27:35.915Z,1.00
2023-08-29T02:30:04.390Z,0.73
2023-08-29T02:32:30.855Z,0.75
2023-08-29T02:34:57.407Z,1.15
2023-08-29T02:37:25.115Z,0.90
2023-08-29T02:39:51.569Z,1.00
2023-08-29T02:42:18.020Z,0.90
2023-08-29T02:44:44.521Z,0.63
2023-08-29T02:47:10.973Z,0.68
2023-08-29T02:49:37.599Z,0.73
2023-08-29T02:52:05.222Z,0.70
2023-08-29T02:54:31.636Z,0.60
2023-08-29T02:56:58.145Z,0.60
2023-08-29T02:59:24.585Z,0.90
2023-08-29T03:01:51.029Z,0.70
2023-08-29T03:04:17.539Z,0.70
2023-08-29T03:06:43.985Z,0.75
2023-08-29T03:09:10.955Z,0.70
2023-08-29T03:11:37.460Z,0.80
2023-08-29T03:14:05.058Z,0.70
2023-08-29T03:16:32.135Z,0.60
2023-08-29T03:18:58.698Z,0.70
2023-08-29T03:21:25.167Z,0.90
2023-08-29T03:23:51.663Z,0.80
2023-08-29T03:26:18.186Z,0.85
2023-08-29T03:28:46.543Z,0.50
2023-08-29T03:31:14.477Z,0.70
2023-08-29T03:33:42.313Z,0.80
2023-08-29T03:36:09.654Z,0.60
2023-08-29T03:38:38.040Z,0.68
2023-08-29T03:41:05.910Z,0.95
2023-08-29T03:43:34.778Z,0.65
2023-08-29T03:46:03.623Z,0.52
2023-08-29T03:48:31.795Z,0.80
2023-08-29T03:51:08.331Z,0.80
2023-08-29T03:53:38.503Z,0.70
2023-08-29T03:56:06.787Z,0.63
2023-08-29T03:58:33.895Z,1.00
2023-08-29T04:01:00.816Z,0.60
2023-08-29T04:03:27.512Z,0.90
2023-08-29T04:05:54.266Z,0.90
2023-08-29T04:08:20.715Z,0.82
2023-08-29T04:10:47.763Z,0.70
2023-08-29T04:13:14.348Z,0.82
2023-08-29T04:15:40.917Z,0.70
2023-08-29T04:18:09.524Z,0.90
2023-08-29T04:20:36.404Z,1.17
2023-08-29T04:23:04.528Z,0.90
2023-08-29T04:25:31.591Z,1.20
2023-08-29T04:27:58.615Z,1.10
2023-08-29T04:30:25.132Z,0.95
2023-08-29T04:32:51.888Z,1.50
2023-08-29T04:35:18.676Z,1.50
2023-08-29T04:37:49.518Z,1.52
2023-08-29T04:40:17.960Z,1.50
2023-08-29T04:42:45.832Z,1.50
2023-08-29T04:45:12.391Z,1.50
2023-08-29T04:47:40.055Z,1.63
2023-08-29T04:50:07.732Z,1.25
2023-08-29T04:52:34.342Z,1.52
2023-08-29T04:55:01.067Z,1.73
2023-08-29T04:57:27.470Z,1.40
2023-08-29T04:59:53.958Z,1.60
2023-08-29T05:02:20.418Z,2.03
2023-08-29T05:04:48.706Z,1.63
2023-08-29T05:07:15.562Z,1.90
2023-08-29T05:09:42.424Z,1.52
2023-08-29T05:12:11.547Z,1.92
2023-08-29T05:14:41.461Z,1.70
2023-08-29T05:17:10.122Z,1.15
2023-08-29T05:19:36.770Z,1.60
2023-08-29T05:22:03.315Z,1.80
2023-08-29T05:24:29.994Z,1.90
2023-08-29T05:26:56.484Z,1.63
2023-08-29T05:29:22.988Z,1.85
2023-08-29T05:31:49.517Z,1.70
2023-08-29T05:34:16.099Z,1.20
2023-08-29T05:36:49.617Z,1.88
2023-08-29T05:39:16.277Z,1.80
2023-08-29T05:41:42.731Z,1.30
2023-08-29T05:44:15.525Z,1.63
2023-08-29T05:46:42.155Z,1.77
2023-08-29T05:49:09.131Z,1.83
2023-08-29T05:51:35.616Z,1.90
2023-08-29T05:54:02.126Z,1.80
2023-08-29T05:56:28.654Z,2.22
2023-08-29T05:58:55.073Z,2.03
2023-08-29T06:01:23.039Z,1.90
2023-08-29T06:03:54.893Z,2.15
2023-08-29T06:06:21.401Z,2.20
2023-08-29T06:08:48.082Z,2.30
2023-08-29T06:11:14.807Z,2.05
2023-08-29T06:13:41.226Z,2.28
2023-08-29T06:16:10.339Z,2.30
2023-08-29T06:18:36.909Z,2.58
2023-08-29T06:21:05.356Z,2.22
2023-08-29T06:23:31.888Z,2.05
2023-08-29T06:25:59.340Z,1.98
2023-08-29T06:28:34.959Z,2.03
2023-08-29T06:31:09.511Z,2.15
2023-08-29T06:33:39.382Z,1.77
2023-08-29T06:36:06.110Z,1.95
2023-08-29T06:38:35.497Z,2.35
2023-08-29T06:41:02.252Z,2.58
2023-08-29T06:43:28.759Z,2.50
2023-08-29T06:45:55.171Z,1.80
2023-08-29T06:48:21.732Z,2.33
2023-08-29T06:50:48.186Z,2.28
2023-08-29T06:53:17.378Z,2.60
2023-08-29T06:55:46.494Z,2.75
2023-08-29T06:58:12.931Z,2.72
2023-08-29T07:00:39.815Z,2.85
2023-08-29T07:03:06.389Z,2.53
2023-08-29T07:05:33.079Z,2.30
2023-08-29T07:08:00.744Z,2.58
2023-08-29T07:10:27.337Z,2.60
2023-08-29T07:12:53.885Z,2.42
2023-08-29T07:15:20.318Z,2.50
2023-08-29T07:17:46.845Z,2.42
2023-08-29T07:20:13.441Z,2.00
2023-08-29T07:22:44.349Z,2.20
2023-08-29T07:25:12.281Z,1.88
2023-08-29T07:27:39.193Z,2.50
2023-08-29T07:30:09.101Z,2.42
2023-08-29T07:32:35.609Z,2.03
2023-08-29T07:35:03.642Z,2.47
2023-08-29T07:37:30.305Z,1.92
2023-08-29T07:39:56.775Z,2.35
2023-08-29T07:42:23.484Z,2.33
2023-08-29T07:44:52.403Z,1.95
2023-08-29T07:47:18.933Z,1.85
2023-08-29T07:49:45.445Z,1.92
2023-08-29T07:52:12.064Z,2.20
2023-08-29T07:54:42.780Z,2.20
2023-08-29T07:57:09.447Z,2.15
2023-08-29T07:59:36.020Z,2.38
2023-08-29T08:02:02.577Z,2.42
2023-08-29T08:04:29.800Z,2.25
2023-08-29T08:06:56.264Z,2.10
2023-08-29T08:09:22.984Z,2.20
2023-08-29T08:11:49.596Z,2.08
2023-08-29T08:14:18.321Z,2.20
2023-08-29T08:16:44.933Z,1.85
2023-08-29T08:19:14.290Z,1.88
2023-08-29T08:21:41.024Z,1.80
2023-08-29T08:24:10.363Z,1.70
2023-08-29T08:26:37.040Z,1.60
2023-08-29T08:29:05.462Z,1.40
2023-08-29T08:31:32.516Z,1.42
2023-08-29T08:33:59.064Z,1.50
2023-08-29T08:36:25.659Z,1.40
2023-08-29T08:38:52.386Z,1.23
2023-08-29T08:41:19.844Z,1.33
2023-08-29T08:43:48.293Z,1.00
2023-08-29T08:46:17.406Z,1.10
2023-08-29T08:48:44.129Z,1.30
2023-08-29T08:51:12.429Z,1.00
2023-08-29T08:53:40.407Z,0.70
2023-08-29T08:56:09.120Z,0.70
2023-08-29T08:58:37.132Z,0.70
2023-08-29T09:01:04.259Z,0.75
2023-08-29T09:03:30.814Z,0.65
2023-08-29T09:06:00.200Z,0.82
2023-08-29T09:08:26.828Z,0.57
2023-08-29T09:10:54.516Z,0.77
2023-08-29T09:13:21.815Z,0.70
2023-08-29T09:15:48.564Z,0.60
2023-08-29T09:18:24.050Z,0.63
2023-08-29T09:20:52.880Z,0.70
2023-08-29T09:23:28.078Z,0.70
2023-08-29T09:25:54.918Z,0.80
2023-08-29T09:28:22.384Z,0.85
2023-08-29T09:30:50.946Z,0.65
2023-08-29T09:35:46.645Z,0.70
2023-08-29T09:38:13.540Z,0.80
2023-08-29T09:40:50.447Z,8.23
2023-08-29T09:43:18.124Z,2.08
2023-08-29T09:45:52.462Z,1.25
2023-08-29T09:48:20.110Z,0.90
2023-08-29T09:50:48.203Z,0.85
2023-08-29T09:53:19.445Z,1.02
2023-08-29T09:55:48.171Z,1.20
2023-08-29T09:58:16.669Z,1.20
2023-08-29T10:03:12.141Z,1.30
2023-08-29T10:05:44.112Z,1.88
2023-08-29T10:08:59.263Z,1.80
2023-08-29T10:11:28.700Z,1.48
2023-08-29T10:13:57.382Z,1.42
2023-08-29T10:16:24.767Z,1.70
2023-08-29T10:18:56.897Z,1.70
2023-08-29T10:21:24.926Z,1.80
2023-08-29T10:23:51.913Z,1.63
2023-08-29T10:26:18.751Z,2.03
2023-08-29T10:28:47.266Z,2.08
2023-08-29T10:36:09.767Z,1.40
2023-08-29T10:38:40.449Z,1.00
2023-08-29T10:41:12.170Z,1.13
2023-08-29T10:43:38.748Z,0.90
2023-08-29T10:46:11.316Z,1.35
2023-08-29T10:48:40.828Z,1.27
2023-08-29T10:51:12.549Z,0.88
2023-08-29T10:53:48.014Z,1.13
2023-08-29T10:56:15.321Z,1.42
2023-08-29T10:58:44.107Z,1.10
2023-08-29T11:01:26.169Z,1.70
2023-08-29T11:03:52.881Z,1.05
2023-08-29T11:06:21.071Z,1.08
2023-08-29T11:08:47.825Z,0.80
2023-08-29T11:11:20.433Z,0.90
2023-08-29T11:13:57.977Z,1.10
2023-08-29T11:16:25.477Z,1.00
2023-08-29T11:19:14.824Z,0.90
2023-08-29T11:21:44.140Z,1.20
2023-08-29T11:24:16.750Z,1.02
2023-08-29T11:26:47.972Z,1.20
2023-08-29T11:29:14.662Z,0.90
2023-08-29T11:31:43.905Z,2.70
2023-08-29T11:34:19.383Z,0.80
2023-08-29T11:36:51.940Z,1.10
2023-08-29T11:39:22.666Z,0.90
2023-08-29T11:41:57.139Z,1.08
2023-08-29T11:45:28.753Z,1.13
2023-08-29T11:47:24.794Z,1.15
2023-08-29T11:49:52.959Z,1.50
2023-08-29T11:52:25.375Z,1.20
2023-08-29T11:54:57.207Z,1.10
2023-08-29T11:57:24.390Z,1.30
2023-08-29T11:59:53.337Z,1.23
2023-08-29T12:02:22.521Z,1.50
2023-08-29T12:04:54.645Z,1.48
2023-08-29T12:07:21.329Z,1.40
2023-08-29T12:09:49.079Z,1.48
2023-08-29T12:12:37.386Z,1.38
2023-08-29T12:15:07.178Z,1.40
2023-08-29T12:17:35.235Z,1.40
2023-08-29T12:20:01.894Z,1.30
2023-08-29T12:22:35.677Z,1.48
2023-08-29T12:25:02.262Z,1.25
2023-08-29T12:27:29.055Z,2.08
2023-08-29T12:29:55.632Z,1.35
2023-08-29T12:32:29.003Z,1.58
2023-08-29T12:34:57.377Z,1.63
2023-08-29T12:37:25.625Z,1.92
2023-08-29T12:39:52.587Z,2.03
2023-08-29T12:42:19.188Z,2.13
2023-08-29T12:44:45.748Z,2.03
2023-08-29T12:47:12.160Z,2.03
2023-08-29T12:49:38.577Z,2.33
2023-08-29T12:52:05.370Z,2.60
2023-08-29T12:54:31.927Z,2.88
2023-08-29T12:56:58.321Z,2.67
2023-08-29T12:59:24.777Z,2.70
2023-08-29T13:01:54.481Z,2.35
2023-08-29T13:04:21.029Z,2.40
2023-08-29T13:06:47.425Z,3.00
2023-08-29T13:09:30.878Z,2.50
2023-08-29T13:12:03.246Z,2.70
2023-08-29T13:14:37.741Z,2.83
2023-08-29T13:17:05.307Z,3.03
2023-08-29T13:19:33.811Z,2.85
2023-08-29T13:24:28.779Z,3.38
2023-08-29T13:26:55.340Z,3.08
2023-08-29T13:29:21.909Z,3.17
2023-08-29T13:31:50.585Z,2.67
2023-08-29T13:34:18.126Z,2.70
2023-08-29T13:36:44.637Z,3.15
2023-08-29T13:39:11.131Z,3.60
2023-08-29T13:41:37.589Z,2.97
2023-08-29T13:44:05.347Z,3.25
2023-08-29T13:46:31.992Z,2.85
2023-08-29T13:48:58.506Z,2.90
2023-08-29T13:51:27.768Z,3.13
2023-08-29T13:53:54.264Z,2.90
2023-08-29T13:56:20.740Z,3.67
2023-08-29T13:58:48.341Z,3.10
2023-08-29T14:01:14.836Z,3.22
2023-08-29T14:03:41.397Z,4.13
2023-08-29T14:06:07.927Z,3.10
2023-08-29T14:08:34.399Z,2.92
2023-08-29T14:11:05.555Z,2.97
2023-08-29T14:13:34.369Z,3.00
2023-08-29T14:16:04.379Z,2.70
2023-08-29T14:18:32.094Z,3.35
2023-08-29T14:20:58.737Z,3.45
2023-08-29T14:23:25.457Z,3.30
2023-08-29T14:25:51.966Z,3.17
2023-08-29T14:28:18.524Z,2.97
2023-08-29T14:30:45.865Z,2.67
2023-08-29T14:33:13.685Z,3.10
2023-08-29T14:35:40.532Z,2.35
2023-08-29T14:38:07.633Z,2.15
2023-08-29T14:40:34.553Z,1.92
2023-08-29T14:43:01.046Z,2.13
2023-08-29T14:45:27.812Z,2.38
2023-08-29T14:47:54.369Z,2.00
2023-08-29T14:50:21.530Z,2.00
2023-08-29T14:52:50.606Z,1.80
2023-08-29T14:55:21.969Z,2.00
2023-08-29T14:57:50.713Z,1.92
2023-08-29T15:00:17.374Z,1.80
2023-08-29T15:02:45.231Z,1.75
2023-08-29T15:05:13.068Z,1.90
2023-08-29T15:07:40.581Z,1.70
2023-08-29T15:10:08.026Z,1.63
2023-08-29T15:12:35.116Z,1.90
2023-08-29T15:15:02.405Z,1.95
2023-08-29T15:17:31.968Z,1.90
2023-08-29T15:19:58.617Z,1.98
2023-08-29T15:22:25.233Z,1.80
2023-08-29T15:24:53.846Z,1.95
2023-08-29T15:27:20.753Z,1.83
2023-08-29T15:29:47.262Z,2.00
2023-08-29T15:32:13.703Z,1.77
2023-08-29T15:34:40.256Z,2.00
2023-08-29T15:37:07.111Z,1.73
2023-08-29T15:39:34.176Z,1.50
2023-08-29T15:42:00.904Z,2.00
2023-08-29T15:44:33.331Z,1.92
2023-08-29T15:47:00.525Z,1.70
2023-08-29T15:49:39.115Z,1.65
2023-08-29T15:52:08.499Z,1.92
2023-08-29T15:54:34.945Z,1.80
2023-08-29T15:57:04.812Z,1.63
2023-08-29T15:59:31.299Z,1.98
2023-08-29T16:01:58.677Z,1.55
2023-08-29T16:04:31.364Z,1.77
2023-08-29T16:07:00.928Z,1.63
2023-08-29T16:09:30.756Z,1.60
2023-08-29T16:12:02.378Z,2.95
2023-08-29T16:14:29.895Z,2.97
2023-08-29T16:16:57.942Z,1.75
2023-08-29T16:19:24.758Z,1.80
2023-08-29T16:22:17.783Z,1.95
2023-08-29T16:27:25.844Z,1.88
2023-08-29T16:29:55.841Z,1.50
2023-08-29T16:32:22.287Z,1.70
2023-08-29T16:34:48.994Z,1.65
2023-08-29T16:37:15.471Z,1.73
2023-08-29T16:39:41.946Z,2.03
2023-08-29T16:42:08.474Z,1.50
2023-08-29T16:44:35.463Z,1.77
2023-08-29T16:47:02.049Z,1.42
2023-08-29T16:49:28.717Z,1.48
2023-08-29T16:51:56.195Z,1.92
2023-08-29T16:54:29.527Z,1.60
2023-08-29T16:56:56.202Z,1.40
2023-08-29T16:59:22.739Z,3.30
2023-08-29T17:01:49.345Z,2.00
2023-08-29T17:04:15.842Z,1.40
2023-08-29T17:06:42.648Z,1.65
2023-08-29T17:09:09.400Z,1.50
2023-08-29T17:11:35.998Z,1.60
2023-08-29T17:14:03.436Z,1.85
2023-08-29T17:16:30.675Z,1.60
2023-08-29T17:18:57.349Z,1.77
2023-08-29T17:21:23.908Z,1.73
2023-08-29T17:23:50.571Z,1.50
2023-08-29T17:26:19.023Z,1.60
2023-08-29T17:28:45.756Z,1.70
2023-08-29T17:31:12.540Z,1.75
2023-08-29T17:33:39.199Z,1.73
2023-08-29T17:36:07.145Z,1.90
2023-08-29T17:38:33.796Z,1.58
2023-08-29T17:41:01.706Z,1.83
2023-08-29T17:43:29.299Z,1.90
2023-08-29T17:45:57.583Z,1.85
2023-08-29T17:48:27.000Z,1.80
2023-08-29T17:50:58.156Z,1.70
2023-08-29T17:53:25.053Z,1.70
2023-08-29T17:55:54.479Z,1.80
2023-08-29T17:58:25.146Z,1.95
2023-08-29T18:00:53.226Z,1.60
2023-08-29T18:03:20.345Z,1.90
2023-08-29T18:05:51.597Z,2.78
2023-08-29T18:08:19.618Z,1.50
2023-08-29T18:10:49.659Z,1.73
2023-08-29T18:13:17.894Z,1.85
2023-08-29T18:15:44.397Z,1.70
2023-08-29T18:18:21.631Z,1.75
2023-08-29T18:20:51.170Z,1.65
2023-08-29T18:23:19.636Z,1.88
2023-08-29T18:25:46.915Z,2.10
2023-08-29T18:28:13.397Z,1.90
2023-08-29T18:30:40.045Z,1.60
2023-08-29T18:33:06.980Z,1.70
2023-08-29T18:35:37.320Z,1.65
2023-08-29T18:38:07.349Z,1.75
2023-08-29T18:40:34.125Z,1.65
2023-08-29T18:43:01.155Z,1.67
2023-08-29T18:45:27.648Z,1.77
2023-08-29T18:47:54.149Z,1.63
2023-08-29T18:50:23.438Z,1.67
2023-08-29T18:52:49.864Z,1.80
2023-08-29T18:55:19.264Z,1.83
2023-08-29T18:57:46.298Z,1.63
2023-08-29T19:00:13.667Z,1.90
2023-08-29T19:02:40.857Z,1.80
2023-08-29T19:05:08.761Z,2.10
2023-08-29T19:07:38.867Z,1.95
2023-08-29T19:10:06.660Z,2.35
2023-08-29T19:12:33.522Z,2.05
2023-08-29T19:15:01.845Z,1.75
2023-08-29T19:17:29.103Z,2.13
2023-08-29T19:19:55.573Z,1.90
2023-08-29T19:22:22.533Z,1.90
2023-08-29T19:24:49.093Z,1.90
2023-08-29T19:27:23.863Z,1.92
2023-08-29T19:29:53.611Z,1.80
2023-08-29T19:32:20.179Z,2.00
2023-08-29T19:34:47.320Z,2.13
2023-08-29T19:37:13.918Z,1.80
2023-08-29T19:39:40.548Z,1.80
2023-08-29T19:42:07.105Z,2.00
2023-08-29T19:44:33.550Z,2.08
2023-08-29T19:47:02.758Z,2.20
2023-08-29T19:49:38.092Z,2.00
2023-08-29T19:52:06.089Z,2.22
2023-08-29T19:54:32.650Z,1.92
2023-08-29T19:56:59.269Z,2.10
2023-08-29T19:59:26.027Z,2.10
2023-08-29T20:01:52.458Z,1.90
2023-08-29T20:04:19.067Z,1.88
2023-08-29T20:06:45.499Z,1.98
2023-08-29T20:09:12.537Z,1.73
2023-08-29T20:11:39.326Z,2.10
2023-08-29T20:14:05.879Z,2.20
2023-08-29T20:16:32.479Z,2.22
2023-08-29T20:18:58.981Z,2.33
2023-08-29T20:21:25.462Z,2.22
2023-08-29T20:24:02.043Z,2.55
2023-08-29T20:26:30.565Z,2.72
2023-08-29T20:28:57.232Z,2.00
2023-08-29T20:31:23.973Z,2.38
2023-08-29T20:33:50.826Z,2.20
2023-08-29T20:36:19.545Z,2.03
2023-08-29T20:41:12.523Z,2.10
2023-08-29T20:43:39.059Z,2.00
2023-08-29T20:46:05.518Z,1.80
2023-08-29T20:48:32.289Z,1.80
2023-08-29T20:51:02.604Z,2.15
2023-08-29T20:53:35.722Z,2.20
2023-08-29T20:56:03.372Z,1.80
2023-08-29T20:58:29.796Z,2.13
2023-08-29T21:01:00.481Z,2.00
2023-08-29T21:03:32.786Z,2.30
2023-08-29T21:05:59.584Z,2.35
2023-08-29T21:08:26.778Z,2.33
2023-08-29T21:10:54.338Z,2.47
2023-08-29T21:13:28.204Z,2.20
2023-08-29T21:15:54.697Z,2.70
2023-08-29T21:18:21.143Z,2.22
2023-08-29T21:20:55.880Z,2.25
2023-08-29T21:23:23.375Z,2.25
2023-08-29T21:25:51.051Z,2.60
2023-08-29T21:28:19.062Z,2.83
2023-08-29T21:30:46.111Z,2.50
2023-08-29T21:33:13.751Z,2.70
2023-08-29T21:35:41.851Z,3.03
2023-08-29T21:38:09.367Z,3.05
2023-08-29T21:40:43.766Z,2.47
2023-08-29T21:43:15.480Z,2.80
2023-08-29T21:45:42.152Z,2.90
2023-08-29T21:48:10.790Z,2.40
2023-08-29T21:50:42.369Z,2.50
2023-08-29T21:53:11.121Z,2.42
2023-08-29T21:58:06.980Z,2.63
2023-08-29T22:00:35.373Z,2.50
2023-08-29T22:03:03.205Z,2.58
2023-08-29T22:05:31.364Z,2.70
2023-08-29T22:08:03.904Z,2.83
2023-08-29T22:10:30.443Z,2.60
2023-08-29T22:12:56.852Z,2.90
2023-08-29T22:15:28.856Z,2.60
2023-08-29T22:17:55.507Z,2.45
2023-08-29T22:20:22.067Z,3.05
2023-08-29T22:22:51.256Z,2.92
2023-08-29T22:25:18.449Z,2.70
2023-08-29T22:27:44.923Z,2.55
2023-08-29T22:30:12.586Z,2.97
2023-08-29T22:32:39.062Z,3.33
2023-08-29T22:35:06.307Z,2.92
2023-08-29T22:37:32.975Z,3.13
2023-08-29T22:39:59.482Z,3.30
2023-08-29T22:42:25.973Z,2.92
2023-08-29T22:44:52.578Z,3.22
2023-08-29T22:47:19.915Z,3.10
2023-08-29T22:49:46.493Z,3.15
2023-08-29T22:52:14.848Z,3.08
2023-08-29T22:54:41.858Z,3.13
2023-08-29T22:57:08.275Z,2.83
2023-08-29T22:59:34.907Z,3.28
2023-08-29T23:02:04.268Z,3.50
2023-08-29T23:04:30.751Z,3.03
2023-08-29T23:07:04.218Z,3.22
2023-08-29T23:09:34.543Z,3.38
2023-08-29T23:12:02.065Z,3.67
2023-08-29T23:14:29.206Z,3.42
2023-08-29T23:16:56.414Z,3.13
2023-08-29T23:19:26.525Z,3.00
2023-08-29T23:21:53.988Z,3.47
2023-08-29T23:24:21.526Z,3.25
2023-08-29T23:26:50.967Z,3.22
2023-08-29T23:29:18.357Z,3.65
2023-08-29T23:31:45.215Z,3.10
2023-08-29T23:34:11.781Z,3.47
2023-08-29T23:36:38.196Z,3.92
2023-08-29T23:39:04.915Z,4.28
2023-08-29T23:41:31.398Z,3.53
2023-08-29T23:43:57.787Z,3.47
2023-08-29T23:46:24.305Z,3.45
2023-08-29T23:48:50.891Z,3.88
2023-08-29T23:51:17.423Z,3.50
2023-08-29T23:53:43.929Z,3.72
2023-08-29T23:56:10.482Z,3.50
2023-08-29T23:58:37.003Z,3.63
